sensor_id;sensor_type;location;lat;lon;timestamp;P1;durP1;ratioP1;P2;durP2;ratioP2
72105;SDS011;59975;47.646;18.318;2023-02-18T00:01:24;7.22;;;4.00;;
72105;SDS011;59975;47.646;18.318;2023-02-18T00:03:50;9.35;;;3.38;;
72105;SDS011;59975;47.646;18.318;2023-02-18T00:06:16;7.73;;;3.33;;
72105;SDS011;59975;47.646;18.318;2023-02-18T00:08:44;9.13;;;3.53;;
72105;SDS011;59975;47.646;18.318;2023-02-18T00:11:10;7.25;;;3.33;;
72105;SDS011;59975;47.646;18.318;2023-02-18T00:13:36;9.20;;;3.70;;
72105;SDS011;59975;47.646;18.318;2023-02-18T00:16:02;6.05;;;2.67;;
72105;SDS011;59975;47.646;18.318;2023-02-18T00:18:29;4.28;;;2.35;;
72105;SDS011;59975;47.646;18.318;2023-02-18T00:20:55;5.20;;;2.00;;
72105;SDS011;59975;47.646;18.318;2023-02-18T00:23:21;4.15;;;2.05;;
72105;SDS011;59975;47.646;18.318;2023-02-18T00:25:46;3.60;;;1.90;;
72105;SDS011;59975;47.646;18.318;2023-02-18T00:28:12;5.17;;;2.20;;
72105;SDS011;59975;47.646;18.318;2023-02-18T00:30:41;4.75;;;2.20;;
72105;SDS011;59975;47.646;18.318;2023-02-18T00:33:07;4.72;;;2.22;;
72105;SDS011;59975;47.646;18.318;2023-02-18T00:35:33;4.57;;;2.67;;
72105;SDS011;59975;47.646;18.318;2023-02-18T00:37:58;10.47;;;6.03;;
72105;SDS011;59975;47.646;18.318;2023-02-18T00:40:24;12.30;;;5.35;;
72105;SDS011;59975;47.646;18.318;2023-02-18T00:42:50;12.60;;;5.77;;
72105;SDS011;59975;47.646;18.318;2023-02-18T00:45:15;12.90;;;6.20;;
72105;SDS011;59975;47.646;18.318;2023-02-18T00:47:41;13.83;;;6.90;;
72105;SDS011;59975;47.646;18.318;2023-02-18T00:50:07;14.20;;;5.85;;
72105;SDS011;59975;47.646;18.318;2023-02-18T00:52:33;10.70;;;6.37;;
72105;SDS011;59975;47.646;18.318;2023-02-18T00:54:59;10.57;;;5.10;;
72105;SDS011;59975;47.646;18.318;2023-02-18T00:57:24;12.20;;;5.10;;
72105;SDS011;59975;47.646;18.318;2023-02-18T00:59:50;4.87;;;2.43;;
72105;SDS011;59975;47.646;18.318;2023-02-18T01:02:15;2.60;;;1.45;;
72105;SDS011;59975;47.646;18.318;2023-02-18T01:04:41;2.20;;;1.03;;
72105;SDS011;59975;47.646;18.318;2023-02-18T01:07:06;2.37;;;1.10;;
72105;SDS011;59975;47.646;18.318;2023-02-18T01:09:34;1.50;;;0.77;;
72105;SDS011;59975;47.646;18.318;2023-02-18T01:12:00;2.55;;;0.80;;
72105;SDS011;59975;47.646;18.318;2023-02-18T01:14:25;1.30;;;0.70;;
72105;SDS011;59975;47.646;18.318;2023-02-18T01:16:51;2.13;;;1.33;;
72105;SDS011;59975;47.646;18.318;2023-02-18T01:19:16;1.02;;;0.75;;
72105;SDS011;59975;47.646;18.318;2023-02-18T01:21:42;1.90;;;0.90;;
72105;SDS011;59975;47.646;18.318;2023-02-18T01:24:07;5.73;;;1.97;;
72105;SDS011;59975;47.646;18.318;2023-02-18T01:26:33;0.93;;;0.80;;
72105;SDS011;59975;47.646;18.318;2023-02-18T01:28:58;2.03;;;1.10;;
72105;SDS011;59975;47.646;18.318;2023-02-18T01:31:24;1.70;;;0.90;;
72105;SDS011;59975;47.646;18.318;2023-02-18T01:33:49;1.27;;;0.93;;
72105;SDS011;59975;47.646;18.318;2023-02-18T01:36:15;2.35;;;0.90;;
72105;SDS011;59975;47.646;18.318;2023-02-18T01:38:41;2.23;;;1.00;;
72105;SDS011;59975;47.646;18.318;2023-02-18T01:41:07;1.75;;;1.00;;
72105;SDS011;59975;47.646;18.318;2023-02-18T01:43:33;1.37;;;0.97;;
72105;SDS011;59975;47.646;18.318;2023-02-18T01:46:03;1.33;;;0.70;;
72105;SDS011;59975;47.646;18.318;2023-02-18T01:48:38;2.53;;;1.20;;
72105;SDS011;59975;47.646;18.318;2023-02-18T01:51:29;2.33;;;1.10;;
72105;SDS011;59975;47.646;18.318;2023-02-18T01:53:59;3.17;;;1.25;;
72105;SDS011;59975;47.646;18.318;2023-02-18T01:56:45;3.33;;;0.97;;
72105;SDS011;59975;47.646;18.318;2023-02-18T01:59:19;1.60;;;0.98;;
72105;SDS011;59975;47.646;18.318;2023-02-18T02:01:50;1.90;;;0.90;;
72105;SDS011;59975;47.646;18.318;2023-02-18T02:04:16;1.25;;;0.80;;
72105;SDS011;59975;47.646;18.318;2023-02-18T02:06:43;2.70;;;1.38;;
72105;SDS011;59975;47.646;18.318;2023-02-18T02:09:09;1.27;;;0.90;;
72105;SDS011;59975;47.646;18.318;2023-02-18T02:14:36;2.95;;;1.10;;
72105;SDS011;59975;47.646;18.318;2023-02-18T02:17:06;2.43;;;1.20;;
72105;SDS011;59975;47.646;18.318;2023-02-18T02:33:54;1.00;;;0.60;;
72105;SDS011;59975;47.646;18.318;2023-02-18T02:41:46;1.63;;;0.90;;
72105;SDS011;59975;47.646;18.318;2023-02-18T02:47:26;1.33;;;1.00;;
72105;SDS011;59975;47.646;18.318;2023-02-18T02:49:56;2.80;;;1.00;;
72105;SDS011;59975;47.646;18.318;2023-02-18T02:52:27;2.28;;;1.10;;
72105;SDS011;59975;47.646;18.318;2023-02-18T02:54:56;1.08;;;0.85;;
72105;SDS011;59975;47.646;18.318;2023-02-18T02:59:48;2.85;;;1.00;;
72105;SDS011;59975;47.646;18.318;2023-02-18T03:08:18;1.40;;;0.80;;
72105;SDS011;59975;47.646;18.318;2023-02-18T03:10:56;2.03;;;1.15;;
72105;SDS011;59975;47.646;18.318;2023-02-18T03:13:36;2.28;;;1.05;;
72105;SDS011;59975;47.646;18.318;2023-02-18T03:18:56;1.95;;;1.27;;
72105;SDS011;59975;47.646;18.318;2023-02-18T03:24:15;1.83;;;1.17;;
72105;SDS011;59975;47.646;18.318;2023-02-18T03:26:49;3.13;;;1.38;;
72105;SDS011;59975;47.646;18.318;2023-02-18T03:29:18;2.10;;;1.13;;
72105;SDS011;59975;47.646;18.318;2023-02-18T03:31:46;2.20;;;1.17;;
72105;SDS011;59975;47.646;18.318;2023-02-18T03:34:19;2.90;;;1.63;;
72105;SDS011;59975;47.646;18.318;2023-02-18T03:36:49;3.13;;;1.15;;
72105;SDS011;59975;47.646;18.318;2023-02-18T03:39:16;5.43;;;1.50;;
72105;SDS011;59975;47.646;18.318;2023-02-18T03:41:43;2.33;;;1.30;;
72105;SDS011;59975;47.646;18.318;2023-02-18T03:44:09;4.10;;;2.08;;
72105;SDS011;59975;47.646;18.318;2023-02-18T03:46:37;3.03;;;1.90;;
72105;SDS011;59975;47.646;18.318;2023-02-18T03:49:04;5.78;;;2.45;;
72105;SDS011;59975;47.646;18.318;2023-02-18T03:51:31;2.43;;;1.63;;
72105;SDS011;59975;47.646;18.318;2023-02-18T03:53:56;4.82;;;1.90;;
72105;SDS011;59975;47.646;18.318;2023-02-18T03:56:22;4.23;;;1.77;;
72105;SDS011;59975;47.646;18.318;2023-02-18T03:58:48;3.97;;;2.30;;
72105;SDS011;59975;47.646;18.318;2023-02-18T04:01:13;5.67;;;2.17;;
72105;SDS011;59975;47.646;18.318;2023-02-18T04:03:39;4.00;;;2.37;;
72105;SDS011;59975;47.646;18.318;2023-02-18T04:06:05;3.78;;;2.30;;
72105;SDS011;59975;47.646;18.318;2023-02-18T04:08:31;6.27;;;2.33;;
72105;SDS011;59975;47.646;18.318;2023-02-18T04:10:56;5.47;;;2.58;;
72105;SDS011;59975;47.646;18.318;2023-02-18T04:13:22;3.63;;;2.10;;
72105;SDS011;59975;47.646;18.318;2023-02-18T04:15:48;3.80;;;2.00;;
72105;SDS011;59975;47.646;18.318;2023-02-18T04:18:14;4.22;;;2.30;;
72105;SDS011;59975;47.646;18.318;2023-02-18T04:20:40;4.10;;;2.38;;
72105;SDS011;59975;47.646;18.318;2023-02-18T04:23:05;4.40;;;2.23;;
72105;SDS011;59975;47.646;18.318;2023-02-18T04:25:31;6.40;;;1.80;;
72105;SDS011;59975;47.646;18.318;2023-02-18T04:27:57;3.50;;;2.13;;
72105;SDS011;59975;47.646;18.318;2023-02-18T04:30:23;4.25;;;2.20;;
72105;SDS011;59975;47.646;18.318;2023-02-18T04:32:48;3.73;;;1.80;;
72105;SDS011;59975;47.646;18.318;2023-02-18T04:35:14;3.83;;;2.00;;
72105;SDS011;59975;47.646;18.318;2023-02-18T04:37:39;3.80;;;1.92;;
72105;SDS011;59975;47.646;18.318;2023-02-18T04:40:05;3.63;;;1.97;;
72105;SDS011;59975;47.646;18.318;2023-02-18T04:42:31;3.67;;;1.55;;
72105;SDS011;59975;47.646;18.318;2023-02-18T04:44:57;3.10;;;1.70;;
72105;SDS011;59975;47.646;18.318;2023-02-18T04:47:22;3.03;;;1.60;;
72105;SDS011;59975;47.646;18.318;2023-02-18T04:49:48;4.53;;;1.73;;
72105;SDS011;59975;47.646;18.318;2023-02-18T04:52:14;2.42;;;1.48;;
72105;SDS011;59975;47.646;18.318;2023-02-18T04:54:39;2.70;;;1.20;;
72105;SDS011;59975;47.646;18.318;2023-02-18T04:57:05;2.97;;;1.53;;
72105;SDS011;59975;47.646;18.318;2023-02-18T04:59:30;3.85;;;1.20;;
72105;SDS011;59975;47.646;18.318;2023-02-18T05:01:56;2.57;;;1.33;;
72105;SDS011;59975;47.646;18.318;2023-02-18T05:04:21;2.10;;;1.10;;
72105;SDS011;59975;47.646;18.318;2023-02-18T05:06:47;2.40;;;1.40;;
72105;SDS011;59975;47.646;18.318;2023-02-18T05:09:12;2.15;;;1.10;;
72105;SDS011;59975;47.646;18.318;2023-02-18T05:11:38;1.55;;;1.10;;
72105;SDS011;59975;47.646;18.318;2023-02-18T05:14:04;2.67;;;1.27;;
72105;SDS011;59975;47.646;18.318;2023-02-18T05:16:29;3.63;;;1.40;;
72105;SDS011;59975;47.646;18.318;2023-02-18T05:18:55;2.95;;;1.23;;
72105;SDS011;59975;47.646;18.318;2023-02-18T05:21:21;1.50;;;1.20;;
72105;SDS011;59975;47.646;18.318;2023-02-18T05:23:46;5.40;;;1.47;;
72105;SDS011;59975;47.646;18.318;2023-02-18T05:26:12;7.38;;;1.95;;
72105;SDS011;59975;47.646;18.318;2023-02-18T05:28:37;2.87;;;1.70;;
72105;SDS011;59975;47.646;18.318;2023-02-18T05:31:03;5.03;;;1.80;;
72105;SDS011;59975;47.646;18.318;2023-02-18T05:33:28;5.30;;;1.70;;
72105;SDS011;59975;47.646;18.318;2023-02-18T05:35:54;2.40;;;1.50;;
72105;SDS011;59975;47.646;18.318;2023-02-18T05:38:19;2.30;;;1.40;;
72105;SDS011;59975;47.646;18.318;2023-02-18T05:40:45;1.98;;;1.30;;
72105;SDS011;59975;47.646;18.318;2023-02-18T05:43:11;2.30;;;1.20;;
72105;SDS011;59975;47.646;18.318;2023-02-18T05:45:37;5.23;;;1.83;;
72105;SDS011;59975;47.646;18.318;2023-02-18T05:48:03;4.65;;;1.52;;
72105;SDS011;59975;47.646;18.318;2023-02-18T05:50:29;2.73;;;1.37;;
72105;SDS011;59975;47.646;18.318;2023-02-18T05:52:54;3.88;;;1.35;;
72105;SDS011;59975;47.646;18.318;2023-02-18T05:55:20;3.23;;;1.07;;
72105;SDS011;59975;47.646;18.318;2023-02-18T05:57:45;3.43;;;1.10;;
72105;SDS011;59975;47.646;18.318;2023-02-18T06:00:11;2.13;;;1.13;;
72105;SDS011;59975;47.646;18.318;2023-02-18T06:02:37;1.35;;;0.82;;
72105;SDS011;59975;47.646;18.318;2023-02-18T06:05:03;2.13;;;1.08;;
72105;SDS011;59975;47.646;18.318;2023-02-18T06:07:29;1.95;;;1.33;;
72105;SDS011;59975;47.646;18.318;2023-02-18T06:09:55;2.13;;;1.40;;
72105;SDS011;59975;47.646;18.318;2023-02-18T06:12:21;2.57;;;1.30;;
72105;SDS011;59975;47.646;18.318;2023-02-18T06:14:46;2.60;;;1.50;;
72105;SDS011;59975;47.646;18.318;2023-02-18T06:17:12;4.27;;;1.53;;
72105;SDS011;59975;47.646;18.318;2023-02-18T06:19:38;2.83;;;1.63;;
72105;SDS011;59975;47.646;18.318;2023-02-18T06:22:04;3.47;;;1.40;;
72105;SDS011;59975;47.646;18.318;2023-02-18T06:24:30;2.22;;;1.70;;
72105;SDS011;59975;47.646;18.318;2023-02-18T06:26:56;3.50;;;1.90;;
72105;SDS011;59975;47.646;18.318;2023-02-18T06:29:22;3.80;;;2.33;;
72105;SDS011;59975;47.646;18.318;2023-02-18T06:31:47;4.23;;;2.23;;
72105;SDS011;59975;47.646;18.318;2023-02-18T06:34:13;3.93;;;2.20;;
72105;SDS011;59975;47.646;18.318;2023-02-18T06:36:38;5.83;;;1.70;;
72105;SDS011;59975;47.646;18.318;2023-02-18T06:39:04;2.50;;;1.80;;
72105;SDS011;59975;47.646;18.318;2023-02-18T06:41:31;3.17;;;1.55;;
72105;SDS011;59975;47.646;18.318;2023-02-18T06:43:57;3.13;;;1.73;;
72105;SDS011;59975;47.646;18.318;2023-02-18T06:46:23;2.10;;;1.30;;
72105;SDS011;59975;47.646;18.318;2023-02-18T06:48:48;3.33;;;1.63;;
72105;SDS011;59975;47.646;18.318;2023-02-18T06:51:14;4.27;;;1.50;;
72105;SDS011;59975;47.646;18.318;2023-02-18T06:53:40;3.67;;;1.75;;
72105;SDS011;59975;47.646;18.318;2023-02-18T06:56:06;3.20;;;1.88;;
72105;SDS011;59975;47.646;18.318;2023-02-18T06:58:32;2.83;;;1.90;;
72105;SDS011;59975;47.646;18.318;2023-02-18T07:00:57;4.60;;;2.10;;
72105;SDS011;59975;47.646;18.318;2023-02-18T07:03:23;4.38;;;1.98;;
72105;SDS011;59975;47.646;18.318;2023-02-18T07:05:49;6.23;;;2.70;;
72105;SDS011;59975;47.646;18.318;2023-02-18T07:08:14;3.05;;;1.77;;
72105;SDS011;59975;47.646;18.318;2023-02-18T07:10:40;3.77;;;1.70;;
72105;SDS011;59975;47.646;18.318;2023-02-18T07:13:06;3.53;;;1.75;;
72105;SDS011;59975;47.646;18.318;2023-02-18T07:15:31;3.47;;;1.60;;
72105;SDS011;59975;47.646;18.318;2023-02-18T07:17:57;5.13;;;2.43;;
72105;SDS011;59975;47.646;18.318;2023-02-18T07:20:23;2.38;;;1.38;;
72105;SDS011;59975;47.646;18.318;2023-02-18T07:22:49;3.35;;;1.90;;
72105;SDS011;59975;47.646;18.318;2023-02-18T07:25:15;2.83;;;1.23;;
72105;SDS011;59975;47.646;18.318;2023-02-18T07:27:41;4.18;;;2.00;;
72105;SDS011;59975;47.646;18.318;2023-02-18T07:30:06;7.83;;;3.17;;
72105;SDS011;59975;47.646;18.318;2023-02-18T07:32:32;5.13;;;2.65;;
72105;SDS011;59975;47.646;18.318;2023-02-18T07:34:58;11.60;;;4.03;;
72105;SDS011;59975;47.646;18.318;2023-02-18T07:37:23;11.48;;;5.15;;
72105;SDS011;59975;47.646;18.318;2023-02-18T07:39:49;8.33;;;3.87;;
72105;SDS011;59975;47.646;18.318;2023-02-18T07:42:14;4.97;;;2.37;;
72105;SDS011;59975;47.646;18.318;2023-02-18T07:44:40;4.57;;;2.90;;
72105;SDS011;59975;47.646;18.318;2023-02-18T07:47:08;5.20;;;2.85;;
72105;SDS011;59975;47.646;18.318;2023-02-18T07:49:41;4.78;;;2.20;;
72105;SDS011;59975;47.646;18.318;2023-02-18T07:52:07;7.18;;;3.13;;
72105;SDS011;59975;47.646;18.318;2023-02-18T07:54:33;5.07;;;2.13;;
72105;SDS011;59975;47.646;18.318;2023-02-18T07:56:58;4.47;;;2.42;;
72105;SDS011;59975;47.646;18.318;2023-02-18T07:59:24;4.47;;;1.90;;
72105;SDS011;59975;47.646;18.318;2023-02-18T08:01:49;3.77;;;2.20;;
72105;SDS011;59975;47.646;18.318;2023-02-18T08:04:15;3.72;;;2.05;;
72105;SDS011;59975;47.646;18.318;2023-02-18T08:06:44;3.03;;;1.70;;
72105;SDS011;59975;47.646;18.318;2023-02-18T08:09:12;3.83;;;2.47;;
72105;SDS011;59975;47.646;18.318;2023-02-18T08:11:38;4.88;;;2.55;;
72105;SDS011;59975;47.646;18.318;2023-02-18T08:14:04;4.95;;;2.53;;
72105;SDS011;59975;47.646;18.318;2023-02-18T08:16:30;9.47;;;3.97;;
72105;SDS011;59975;47.646;18.318;2023-02-18T08:18:56;8.50;;;4.00;;
72105;SDS011;59975;47.646;18.318;2023-02-18T08:21:22;7.47;;;3.28;;
72105;SDS011;59975;47.646;18.318;2023-02-18T08:23:49;9.30;;;2.90;;
72105;SDS011;59975;47.646;18.318;2023-02-18T08:26:14;8.55;;;3.70;;
72105;SDS011;59975;47.646;18.318;2023-02-18T08:28:42;9.52;;;4.13;;
72105;SDS011;59975;47.646;18.318;2023-02-18T08:31:16;6.55;;;2.75;;
72105;SDS011;59975;47.646;18.318;2023-02-18T08:33:44;5.23;;;2.50;;
72105;SDS011;59975;47.646;18.318;2023-02-18T08:36:09;3.00;;;1.85;;
72105;SDS011;59975;47.646;18.318;2023-02-18T08:38:35;4.80;;;2.00;;
72105;SDS011;59975;47.646;18.318;2023-02-18T08:41:05;3.25;;;1.83;;
72105;SDS011;59975;47.646;18.318;2023-02-18T08:43:32;3.67;;;2.13;;
72105;SDS011;59975;47.646;18.318;2023-02-18T08:45:57;3.47;;;2.00;;
72105;SDS011;59975;47.646;18.318;2023-02-18T08:48:24;3.28;;;1.50;;
72105;SDS011;59975;47.646;18.318;2023-02-18T08:50:50;2.63;;;1.65;;
72105;SDS011;59975;47.646;18.318;2023-02-18T08:53:16;5.53;;;2.07;;
72105;SDS011;59975;47.646;18.318;2023-02-18T08:55:42;3.67;;;1.85;;
72105;SDS011;59975;47.646;18.318;2023-02-18T08:58:08;3.37;;;1.43;;
72105;SDS011;59975;47.646;18.318;2023-02-18T09:00:34;2.92;;;1.63;;
72105;SDS011;59975;47.646;18.318;2023-02-18T09:03:00;4.40;;;1.60;;
72105;SDS011;59975;47.646;18.318;2023-02-18T09:05:26;4.90;;;2.10;;
72105;SDS011;59975;47.646;18.318;2023-02-18T09:07:52;2.13;;;1.70;;
72105;SDS011;59975;47.646;18.318;2023-02-18T09:10:17;3.90;;;1.60;;
72105;SDS011;59975;47.646;18.318;2023-02-18T09:12:43;2.63;;;1.77;;
72105;SDS011;59975;47.646;18.318;2023-02-18T09:15:08;3.03;;;1.50;;
72105;SDS011;59975;47.646;18.318;2023-02-18T09:17:34;4.13;;;2.30;;
72105;SDS011;59975;47.646;18.318;2023-02-18T09:19:59;2.43;;;1.70;;
72105;SDS011;59975;47.646;18.318;2023-02-18T09:22:25;2.72;;;1.70;;
72105;SDS011;59975;47.646;18.318;2023-02-18T09:24:51;4.50;;;2.60;;
72105;SDS011;59975;47.646;18.318;2023-02-18T09:27:17;5.10;;;2.70;;
72105;SDS011;59975;47.646;18.318;2023-02-18T09:29:42;6.33;;;3.20;;
72105;SDS011;59975;47.646;18.318;2023-02-18T09:32:08;7.05;;;3.72;;
72105;SDS011;59975;47.646;18.318;2023-02-18T09:34:36;4.43;;;2.40;;
72105;SDS011;59975;47.646;18.318;2023-02-18T09:37:02;9.27;;;4.53;;
72105;SDS011;59975;47.646;18.318;2023-02-18T09:39:28;6.20;;;3.65;;
72105;SDS011;59975;47.646;18.318;2023-02-18T09:41:54;5.13;;;2.60;;
72105;SDS011;59975;47.646;18.318;2023-02-18T09:49:34;5.67;;;3.40;;
72105;SDS011;59975;47.646;18.318;2023-02-18T09:52:05;6.20;;;2.75;;
72105;SDS011;59975;47.646;18.318;2023-02-18T09:54:37;3.83;;;2.22;;
72105;SDS011;59975;47.646;18.318;2023-02-18T09:57:02;2.87;;;1.80;;
72105;SDS011;59975;47.646;18.318;2023-02-18T09:59:29;2.80;;;1.70;;
72105;SDS011;59975;47.646;18.318;2023-02-18T10:01:55;1.70;;;1.50;;
72105;SDS011;59975;47.646;18.318;2023-02-18T10:06:48;3.20;;;1.90;;
72105;SDS011;59975;47.646;18.318;2023-02-18T10:09:35;4.33;;;2.60;;
72105;SDS011;59975;47.646;18.318;2023-02-18T10:12:18;2.20;;;1.67;;
72105;SDS011;59975;47.646;18.318;2023-02-18T10:14:55;4.30;;;2.60;;
72105;SDS011;59975;47.646;18.318;2023-02-18T10:17:24;2.75;;;1.70;;
72105;SDS011;59975;47.646;18.318;2023-02-18T10:19:52;4.05;;;2.05;;
72105;SDS011;59975;47.646;18.318;2023-02-18T10:22:19;2.90;;;1.80;;
72105;SDS011;59975;47.646;18.318;2023-02-18T10:24:56;4.03;;;2.20;;
72105;SDS011;59975;47.646;18.318;2023-02-18T10:27:36;5.50;;;2.15;;
72105;SDS011;59975;47.646;18.318;2023-02-18T10:33:14;3.22;;;1.75;;
72105;SDS011;59975;47.646;18.318;2023-02-18T10:35:59;2.50;;;1.83;;
72105;SDS011;59975;47.646;18.318;2023-02-18T10:41:46;3.22;;;1.75;;
72105;SDS011;59975;47.646;18.318;2023-02-18T10:44:42;6.53;;;2.30;;
72105;SDS011;59975;47.646;18.318;2023-02-18T10:52:24;3.63;;;1.75;;
72105;SDS011;59975;47.646;18.318;2023-02-18T10:57:23;2.50;;;1.65;;
72105;SDS011;59975;47.646;18.318;2023-02-18T10:59:53;6.17;;;1.67;;
72105;SDS011;59975;47.646;18.318;2023-02-18T11:02:59;3.20;;;1.50;;
72105;SDS011;59975;47.646;18.318;2023-02-18T11:05:28;3.13;;;1.17;;
72105;SDS011;59975;47.646;18.318;2023-02-18T11:07:55;2.10;;;1.10;;
72105;SDS011;59975;47.646;18.318;2023-02-18T11:10:26;3.30;;;1.30;;
72105;SDS011;59975;47.646;18.318;2023-02-18T11:12:56;4.72;;;1.63;;
72105;SDS011;59975;47.646;18.318;2023-02-18T11:15:35;1.92;;;1.40;;
72105;SDS011;59975;47.646;18.318;2023-02-18T11:18:11;5.07;;;1.67;;
72105;SDS011;59975;47.646;18.318;2023-02-18T11:20:56;3.97;;;1.77;;
72105;SDS011;59975;47.646;18.318;2023-02-18T11:23:23;2.50;;;1.10;;
72105;SDS011;59975;47.646;18.318;2023-02-18T11:26:02;2.70;;;1.40;;
72105;SDS011;59975;47.646;18.318;2023-02-18T11:31:07;2.88;;;1.38;;
72105;SDS011;59975;47.646;18.318;2023-02-18T11:38:47;2.95;;;1.33;;
72105;SDS011;59975;47.646;18.318;2023-02-18T11:41:38;3.25;;;1.50;;
72105;SDS011;59975;47.646;18.318;2023-02-18T11:44:07;2.92;;;1.20;;
72105;SDS011;59975;47.646;18.318;2023-02-18T11:47:46;6.47;;;1.55;;
72105;SDS011;59975;47.646;18.318;2023-02-18T11:49:41;2.13;;;0.80;;
72105;SDS011;59975;47.646;18.318;2023-02-18T11:55:04;2.15;;;1.10;;
72105;SDS011;59975;47.646;18.318;2023-02-18T11:57:37;7.15;;;2.25;;
72105;SDS011;59975;47.646;18.318;2023-02-18T12:00:16;2.70;;;1.10;;
72105;SDS011;59975;47.646;18.318;2023-02-18T12:02:48;3.73;;;1.30;;
72105;SDS011;59975;47.646;18.318;2023-02-18T12:05:17;1.83;;;1.10;;
72105;SDS011;59975;47.646;18.318;2023-02-18T12:07:49;2.25;;;1.00;;
72105;SDS011;59975;47.646;18.318;2023-02-18T12:10:33;3.75;;;1.45;;
72105;SDS011;59975;47.646;18.318;2023-02-18T12:32:26;3.45;;;1.17;;
72105;SDS011;59975;47.646;18.318;2023-02-18T12:43:42;1.40;;;1.00;;
72105;SDS011;59975;47.646;18.318;2023-02-18T12:46:40;2.42;;;1.20;;
72105;SDS011;59975;47.646;18.318;2023-02-18T12:52:02;3.85;;;0.90;;
72105;SDS011;59975;47.646;18.318;2023-02-18T12:58:04;4.00;;;1.40;;
72105;SDS011;59975;47.646;18.318;2023-02-18T13:12:01;4.47;;;0.90;;
72105;SDS011;59975;47.646;18.318;2023-02-18T13:17:21;5.47;;;2.30;;
72105;SDS011;59975;47.646;18.318;2023-02-18T13:19:54;2.58;;;1.40;;
72105;SDS011;59975;47.646;18.318;2023-02-18T13:22:24;1.45;;;0.98;;
72105;SDS011;59975;47.646;18.318;2023-02-18T13:24:53;2.73;;;1.10;;
72105;SDS011;59975;47.646;18.318;2023-02-18T13:27:26;1.63;;;0.98;;
72105;SDS011;59975;47.646;18.318;2023-02-18T13:30:08;3.33;;;1.35;;
72105;SDS011;59975;47.646;18.318;2023-02-18T13:32:58;1.45;;;0.90;;
72105;SDS011;59975;47.646;18.318;2023-02-18T13:35:48;1.45;;;1.00;;
72105;SDS011;59975;47.646;18.318;2023-02-18T13:41:05;2.05;;;1.02;;
72105;SDS011;59975;47.646;18.318;2023-02-18T13:43:33;3.95;;;1.20;;
72105;SDS011;59975;47.646;18.318;2023-02-18T13:48:33;2.83;;;1.63;;
72105;SDS011;59975;47.646;18.318;2023-02-18T13:51:03;3.87;;;1.73;;
72105;SDS011;59975;47.646;18.318;2023-02-18T13:53:34;3.53;;;1.85;;
72105;SDS011;59975;47.646;18.318;2023-02-18T13:56:03;2.97;;;1.20;;
72105;SDS011;59975;47.646;18.318;2023-02-18T13:58:41;3.50;;;1.77;;
72105;SDS011;59975;47.646;18.318;2023-02-18T14:08:39;1.90;;;1.40;;
72105;SDS011;59975;47.646;18.318;2023-02-18T14:16:19;4.78;;;1.80;;
72105;SDS011;59975;47.646;18.318;2023-02-18T14:26:07;4.90;;;1.80;;
72105;SDS011;59975;47.646;18.318;2023-02-18T14:28:40;4.95;;;1.90;;
72105;SDS011;59975;47.646;18.318;2023-02-18T14:31:26;3.80;;;1.67;;
72105;SDS011;59975;47.646;18.318;2023-02-18T14:51:07;1.37;;;0.73;;
72105;SDS011;59975;47.646;18.318;2023-02-18T14:53:38;2.05;;;0.95;;
72105;SDS011;59975;47.646;18.318;2023-02-18T14:56:07;1.77;;;0.95;;
72105;SDS011;59975;47.646;18.318;2023-02-18T14:58:35;2.65;;;1.40;;
72105;SDS011;59975;47.646;18.318;2023-02-18T15:01:24;4.13;;;1.65;;
72105;SDS011;59975;47.646;18.318;2023-02-18T15:03:54;5.87;;;2.77;;
72105;SDS011;59975;47.646;18.318;2023-02-18T15:08:59;5.45;;;2.80;;
72105;SDS011;59975;47.646;18.318;2023-02-18T15:11:36;6.25;;;3.42;;
72105;SDS011;59975;47.646;18.318;2023-02-18T15:14:09;8.95;;;4.05;;
72105;SDS011;59975;47.646;18.318;2023-02-18T15:16:41;9.17;;;3.60;;
72105;SDS011;59975;47.646;18.318;2023-02-18T15:19:12;7.07;;;3.58;;
72105;SDS011;59975;47.646;18.318;2023-02-18T15:21:50;7.53;;;4.53;;
72105;SDS011;59975;47.646;18.318;2023-02-18T15:24:36;9.60;;;5.30;;
72105;SDS011;59975;47.646;18.318;2023-02-18T15:27:04;12.00;;;5.85;;
72105;SDS011;59975;47.646;18.318;2023-02-18T15:29:36;10.70;;;5.70;;
72105;SDS011;59975;47.646;18.318;2023-02-18T15:32:16;12.10;;;6.68;;
72105;SDS011;59975;47.646;18.318;2023-02-18T15:34:50;13.35;;;6.60;;
72105;SDS011;59975;47.646;18.318;2023-02-18T15:37:17;16.27;;;7.25;;
72105;SDS011;59975;47.646;18.318;2023-02-18T15:39:43;14.00;;;7.30;;
72105;SDS011;59975;47.646;18.318;2023-02-18T15:45:14;14.05;;;7.25;;
72105;SDS011;59975;47.646;18.318;2023-02-18T15:47:52;15.00;;;7.13;;
72105;SDS011;59975;47.646;18.318;2023-02-18T15:50:20;22.23;;;9.70;;
72105;SDS011;59975;47.646;18.318;2023-02-18T15:52:55;27.58;;;10.63;;
72105;SDS011;59975;47.646;18.318;2023-02-18T15:57:54;27.98;;;11.20;;
72105;SDS011;59975;47.646;18.318;2023-02-18T16:00:25;35.67;;;13.98;;
72105;SDS011;59975;47.646;18.318;2023-02-18T16:03:03;52.10;;;15.55;;
72105;SDS011;59975;47.646;18.318;2023-02-18T16:05:37;40.83;;;13.60;;
72105;SDS011;59975;47.646;18.318;2023-02-18T16:08:11;34.00;;;13.43;;
72105;SDS011;59975;47.646;18.318;2023-02-18T16:10:52;36.97;;;14.13;;
72105;SDS011;59975;47.646;18.318;2023-02-18T16:13:20;35.00;;;13.82;;
72105;SDS011;59975;47.646;18.318;2023-02-18T16:15:47;28.55;;;12.02;;
72105;SDS011;59975;47.646;18.318;2023-02-18T16:20:52;33.77;;;13.13;;
72105;SDS011;59975;47.646;18.318;2023-02-18T16:23:24;27.73;;;12.60;;
72105;SDS011;59975;47.646;18.318;2023-02-18T16:25:51;28.42;;;14.82;;
72105;SDS011;59975;47.646;18.318;2023-02-18T16:28:27;27.90;;;13.07;;
72105;SDS011;59975;47.646;18.318;2023-02-18T16:30:57;27.73;;;13.80;;
72105;SDS011;59975;47.646;18.318;2023-02-18T16:33:23;26.15;;;13.02;;
72105;SDS011;59975;47.646;18.318;2023-02-18T16:35:48;30.53;;;14.00;;
72105;SDS011;59975;47.646;18.318;2023-02-18T16:38:15;32.30;;;14.98;;
72105;SDS011;59975;47.646;18.318;2023-02-18T16:40:44;29.23;;;14.90;;
72105;SDS011;59975;47.646;18.318;2023-02-18T16:43:11;29.73;;;14.73;;
72105;SDS011;59975;47.646;18.318;2023-02-18T16:45:40;28.27;;;12.10;;
72105;SDS011;59975;47.646;18.318;2023-02-18T16:48:13;33.80;;;14.65;;
72105;SDS011;59975;47.646;18.318;2023-02-18T16:50:50;28.50;;;14.13;;
72105;SDS011;59975;47.646;18.318;2023-02-18T16:53:16;29.30;;;13.02;;
72105;SDS011;59975;47.646;18.318;2023-02-18T16:55:41;27.95;;;13.82;;
72105;SDS011;59975;47.646;18.318;2023-02-18T16:58:07;30.43;;;14.80;;
72105;SDS011;59975;47.646;18.318;2023-02-18T17:00:32;33.07;;;14.23;;
72105;SDS011;59975;47.646;18.318;2023-02-18T17:02:58;32.65;;;14.63;;
72105;SDS011;59975;47.646;18.318;2023-02-18T17:05:26;30.30;;;14.23;;
72105;SDS011;59975;47.646;18.318;2023-02-18T17:07:55;33.83;;;14.27;;
72105;SDS011;59975;47.646;18.318;2023-02-18T17:10:29;35.25;;;16.40;;
72105;SDS011;59975;47.646;18.318;2023-02-18T17:12:54;35.53;;;16.40;;
72105;SDS011;59975;47.646;18.318;2023-02-18T17:15:24;32.97;;;16.63;;
72105;SDS011;59975;47.646;18.318;2023-02-18T17:17:54;37.70;;;16.63;;
72105;SDS011;59975;47.646;18.318;2023-02-18T17:20:23;38.08;;;17.52;;
72105;SDS011;59975;47.646;18.318;2023-02-18T17:22:49;36.27;;;16.47;;
72105;SDS011;59975;47.646;18.318;2023-02-18T17:25:16;37.22;;;16.92;;
72105;SDS011;59975;47.646;18.318;2023-02-18T17:27:45;35.70;;;15.97;;
72105;SDS011;59975;47.646;18.318;2023-02-18T17:30:11;37.88;;;16.02;;
72105;SDS011;59975;47.646;18.318;2023-02-18T17:32:37;34.03;;;15.80;;
72105;SDS011;59975;47.646;18.318;2023-02-18T17:35:03;39.03;;;17.13;;